createdAt,value
2018-08-09T00:00:22.270Z,21.80
2018-08-09T00:02:57.080Z,21.80
2018-08-09T00:05:31.739Z,21.70
2018-08-09T00:08:06.692Z,21.70
2018-08-09T00:10:41.177Z,21.70
2018-08-09T00:13:15.763Z,21.60
2018-08-09T00:15:50.472Z,21.60
2018-08-09T00:18:25.172Z,21.60
2018-08-09T00:21:00.208Z,21.50
2018-08-09T00:23:34.757Z,21.50
2018-08-09T00:26:09.636Z,21.40
2018-08-09T00:28:44.233Z,21.40
2018-08-09T00:31:18.918Z,21.40
2018-08-09T00:33:53.572Z,21.30
2018-08-09T00:36:28.911Z,21.30
2018-08-09T00:39:05.796Z,21.20
2018-08-09T00:41:41.728Z,21.10
2018-08-09T00:44:15.867Z,21.10
2018-08-09T00:46:50.805Z,21.00
2018-08-09T00:49:25.558Z,20.90
2018-08-09T00:52:00.160Z,20.90
2018-08-09T00:54:34.990Z,20.80
2018-08-09T00:57:10.075Z,20.80
2018-08-09T00:59:44.437Z,20.70
2018-08-09T01:02:19.204Z,20.60
2018-08-09T01:04:54.132Z,20.60
2018-08-09T01:07:28.865Z,20.50
2018-08-09T01:10:04.375Z,20.50
2018-08-09T01:12:39.336Z,20.40
2018-08-09T01:15:14.004Z,20.40
2018-08-09T01:17:48.731Z,20.40
2018-08-09T01:20:23.452Z,20.30
2018-08-09T01:22:58.404Z,20.30
2018-08-09T01:25:32.787Z,20.30
2018-08-09T01:28:07.491Z,20.20
2018-08-09T01:30:42.163Z,20.20
2018-08-09T01:33:16.924Z,20.20
2018-08-09T01:35:51.537Z,20.20
2018-08-09T01:38:26.288Z,20.10
2018-08-09T01:41:01.337Z,20.10
2018-08-09T01:44:07.780Z,20.10
2018-08-09T01:46:41.847Z,20.10
2018-08-09T01:49:17.001Z,20.10
2018-08-09T01:51:51.846Z,20.10
2018-08-09T01:54:26.666Z,20.00
2018-08-09T01:57:01.316Z,20.00
2018-08-09T01:59:35.939Z,20.00
2018-08-09T02:02:10.597Z,20.00
2018-08-09T02:04:45.310Z,20.00
2018-08-09T02:07:20.425Z,20.00
2018-08-09T02:09:55.060Z,20.00
2018-08-09T02:12:29.772Z,20.00
2018-08-09T02:15:04.874Z,19.90
2018-08-09T02:17:39.061Z,20.00
2018-08-09T02:20:13.816Z,20.00
2018-08-09T02:22:48.479Z,19.90
2018-08-09T02:25:23.390Z,19.90
2018-08-09T02:27:58.189Z,20.00
2018-08-09T02:30:33.011Z,19.90
2018-08-09T02:33:07.767Z,19.90
2018-08-09T02:35:42.438Z,19.90
2018-08-09T02:38:17.432Z,19.90
2018-08-09T02:40:52.245Z,19.90
2018-08-09T02:43:26.804Z,19.90
2018-08-09T02:46:01.695Z,19.90
2018-08-09T02:48:36.301Z,19.90
2018-08-09T02:51:11.401Z,19.90
2018-08-09T02:53:45.922Z,19.90
2018-08-09T02:56:20.753Z,19.80
2018-08-09T02:58:55.977Z,19.80
2018-08-09T03:01:30.541Z,19.80
2018-08-09T03:04:05.461Z,19.80
2018-08-09T03:06:40.465Z,19.80
2018-08-09T03:09:14.985Z,19.80
2018-08-09T03:11:50.095Z,19.80
2018-08-09T03:14:24.580Z,19.70
2018-08-09T03:16:59.304Z,19.70
2018-08-09T03:19:34.093Z,19.70
2018-08-09T03:22:08.852Z,19.60
2018-08-09T03:24:43.856Z,19.60
2018-08-09T03:27:18.756Z,19.60
2018-08-09T03:29:53.454Z,19.60
2018-08-09T03:32:28.309Z,19.60
2018-08-09T03:35:02.850Z,19.60
2018-08-09T03:37:37.530Z,19.60
2018-08-09T03:40:12.467Z,19.50
2018-08-09T03:42:47.244Z,19.50
2018-08-09T03:45:21.899Z,19.50
2018-08-09T03:47:56.644Z,19.50
2018-08-09T03:50:31.183Z,19.50
2018-08-09T03:53:05.929Z,19.50
2018-08-09T03:55:40.926Z,19.50
2018-08-09T03:58:15.391Z,19.50
2018-08-09T04:00:50.265Z,19.50
2018-08-09T04:03:25.008Z,19.50
2018-08-09T04:05:59.875Z,19.50
2018-08-09T04:08:34.769Z,19.50
2018-08-09T04:11:09.652Z,19.50
2018-08-09T04:13:44.980Z,19.50
2018-08-09T04:16:19.296Z,19.50
2018-08-09T04:18:54.260Z,19.50
2018-08-09T04:21:28.840Z,19.60
2018-08-09T04:24:03.504Z,19.60
2018-08-09T04:26:38.325Z,19.60
2018-08-09T04:29:13.251Z,19.70
2018-08-09T04:31:47.618Z,19.70
2018-08-09T04:34:22.272Z,19.80
2018-08-09T04:36:57.001Z,19.80
2018-08-09T04:39:31.832Z,19.90
2018-08-09T04:42:06.578Z,19.90
2018-08-09T04:44:41.329Z,20.00
2018-08-09T04:47:16.196Z,20.10
2018-08-09T04:49:50.899Z,20.20
2018-08-09T04:52:25.722Z,20.20
2018-08-09T04:55:00.839Z,20.20
2018-08-09T04:57:35.751Z,20.30
2018-08-09T05:00:10.660Z,20.40
2018-08-09T05:02:45.219Z,20.50
2018-08-09T05:05:19.822Z,20.60
2018-08-09T05:07:54.498Z,20.60
2018-08-09T05:10:30.065Z,20.70
2018-08-09T05:13:04.160Z,20.80
2018-08-09T05:15:38.802Z,20.90
2018-08-09T05:18:13.632Z,20.90
2018-08-09T05:20:48.301Z,21.00
2018-08-09T05:23:23.077Z,21.10
2018-08-09T05:25:57.417Z,21.20
2018-08-09T05:28:32.385Z,21.50
2018-08-09T05:31:13.806Z,21.90
2018-08-09T05:33:48.802Z,22.00
2018-08-09T05:36:22.931Z,22.20
2018-08-09T05:38:57.672Z,22.40
2018-08-09T05:41:32.329Z,22.70
2018-08-09T05:44:07.564Z,23.40
2018-08-09T05:46:41.849Z,24.00
2018-08-09T05:49:16.425Z,24.40
2018-08-09T05:51:51.090Z,24.60
2018-08-09T05:54:25.713Z,24.60
2018-08-09T05:57:00.409Z,24.70
2018-08-09T05:59:35.207Z,25.10
2018-08-09T06:02:09.995Z,25.40
2018-08-09T06:04:44.588Z,25.80
2018-08-09T06:07:19.306Z,26.30
2018-08-09T06:09:54.044Z,26.80
2018-08-09T06:12:28.864Z,27.20
2018-08-09T06:15:04.014Z,27.60
2018-08-09T06:17:38.367Z,27.90
2018-08-09T06:20:13.076Z,28.20
2018-08-09T06:22:47.836Z,28.40
2018-08-09T06:25:22.740Z,28.60
2018-08-09T06:27:57.363Z,28.60
2018-08-09T06:30:32.281Z,28.70
2018-08-09T06:33:07.222Z,28.90
2018-08-09T06:35:42.177Z,29.10
2018-08-09T06:38:17.089Z,29.20
2018-08-09T06:40:52.056Z,29.30
2018-08-09T06:43:26.676Z,29.50
2018-08-09T06:46:01.617Z,29.70
2018-08-09T06:48:36.481Z,29.90
2018-08-09T06:51:11.428Z,30.10
2018-08-09T06:53:46.480Z,30.40
2018-08-09T06:56:21.016Z,30.70
2018-08-09T06:58:55.976Z,30.90
2018-08-09T07:01:30.789Z,31.20
2018-08-09T07:04:05.640Z,31.40
2018-08-09T07:06:40.489Z,31.70
2018-08-09T07:09:14.984Z,31.70
2018-08-09T07:11:49.964Z,31.80
2018-08-09T07:14:24.468Z,31.80
2018-08-09T07:16:59.403Z,31.70
2018-08-09T07:19:34.087Z,31.50
2018-08-09T07:22:10.060Z,31.40
2018-08-09T07:24:44.564Z,31.20
2018-08-09T07:27:19.312Z,31.30
2018-08-09T07:29:53.968Z,31.30
2018-08-09T07:32:29.304Z,31.40
2018-08-09T07:35:04.242Z,31.40
2018-08-09T07:37:38.799Z,31.60
2018-08-09T07:40:13.604Z,31.70
2018-08-09T07:42:48.564Z,31.70
2018-08-09T07:45:23.180Z,31.80
2018-08-09T07:47:58.049Z,31.90
2018-08-09T07:50:32.615Z,32.00
2018-08-09T07:53:07.568Z,32.00
2018-08-09T07:55:42.420Z,32.30
2018-08-09T07:58:17.291Z,32.50
2018-08-09T08:00:52.001Z,32.40
2018-08-09T08:03:26.796Z,32.50
2018-08-09T08:06:02.051Z,32.60
2018-08-09T08:08:36.996Z,32.80
2018-08-09T08:11:11.432Z,33.20
2018-08-09T08:13:46.283Z,33.50
2018-08-09T08:16:20.906Z,33.50
2018-08-09T08:18:55.984Z,33.20
2018-08-09T08:21:30.721Z,33.10
2018-08-09T08:24:05.732Z,33.00
2018-08-09T08:26:40.771Z,33.20
2018-08-09T08:29:15.975Z,33.30
2018-08-09T08:31:51.104Z,33.60
2018-08-09T08:34:25.788Z,33.60
2018-08-09T08:37:00.906Z,33.80
2018-08-09T08:39:35.539Z,34.00
2018-08-09T08:42:09.724Z,33.90
2018-08-09T08:44:44.250Z,34.00
2018-08-09T08:47:19.033Z,33.90
2018-08-09T08:49:53.895Z,34.00
2018-08-09T08:52:28.449Z,34.30
2018-08-09T08:55:04.110Z,34.20
2018-08-09T08:57:39.908Z,34.30
2018-08-09T09:00:14.704Z,34.50
2018-08-09T09:02:49.562Z,34.70
2018-08-09T09:05:25.322Z,34.80
2018-08-09T09:08:00.335Z,34.90
2018-08-09T09:10:35.226Z,34.80
2018-08-09T09:13:09.815Z,34.90
2018-08-09T09:15:44.749Z,35.20
2018-08-09T09:18:19.457Z,35.10
2018-08-09T09:20:54.309Z,35.30
2018-08-09T09:23:28.443Z,35.60
2018-08-09T09:26:03.136Z,35.70
2018-08-09T09:28:37.992Z,35.70
2018-08-09T09:31:12.840Z,35.70
2018-08-09T09:33:47.564Z,35.80
2018-08-09T09:36:22.060Z,35.80
2018-08-09T09:38:57.064Z,35.90
2018-08-09T09:41:31.813Z,35.80
2018-08-09T09:44:06.884Z,35.50
2018-08-09T09:46:41.929Z,35.50
2018-08-09T09:49:16.228Z,35.50
2018-08-09T09:51:51.052Z,35.60
2018-08-09T09:54:25.784Z,35.60
2018-08-09T09:56:59.874Z,35.70
2018-08-09T09:59:34.618Z,35.80
2018-08-09T10:02:09.580Z,35.90
2018-08-09T10:04:44.192Z,35.80
2018-08-09T10:07:18.992Z,35.80
2018-08-09T10:09:53.842Z,35.80
2018-08-09T10:12:28.568Z,35.90
2018-08-09T10:15:03.494Z,36.00
2018-08-09T10:17:37.872Z,36.10
2018-08-09T10:20:12.476Z,36.10
2018-08-09T10:22:47.460Z,36.10
2018-08-09T10:25:22.302Z,36.00
2018-08-09T10:27:57.095Z,35.80
2018-08-09T10:30:32.052Z,35.60
2018-08-09T10:33:13.468Z,35.50
2018-08-09T10:35:47.717Z,35.40
2018-08-09T10:38:22.565Z,35.40
2018-08-09T10:40:57.172Z,35.50
2018-08-09T10:43:32.415Z,35.60
2018-08-09T10:46:07.257Z,35.60
2018-08-09T10:48:42.204Z,35.60
2018-08-09T10:51:16.702Z,35.50
2018-08-09T10:53:51.384Z,35.60
2018-08-09T10:56:26.387Z,35.70
2018-08-09T10:59:00.638Z,35.60
2018-08-09T11:01:34.900Z,35.30
2018-08-09T11:04:09.543Z,35.10
2018-08-09T11:06:44.516Z,34.80
2018-08-09T11:09:19.038Z,34.70
2018-08-09T11:11:53.944Z,34.60
2018-08-09T11:14:28.910Z,34.50
2018-08-09T11:17:03.718Z,34.30
2018-08-09T11:19:38.368Z,34.10
2018-08-09T11:22:13.173Z,34.00
2018-08-09T11:24:47.988Z,33.80
2018-08-09T11:27:22.848Z,33.70
2018-08-09T11:29:57.584Z,33.60
2018-08-09T11:32:32.204Z,33.40
2018-08-09T11:35:06.902Z,33.20
2018-08-09T11:37:41.660Z,33.10
2018-08-09T11:40:16.484Z,33.00
2018-08-09T11:42:50.927Z,32.90
2018-08-09T11:45:25.713Z,32.90
2018-08-09T11:48:00.473Z,32.80
2018-08-09T11:50:35.210Z,32.80
2018-08-09T11:53:09.956Z,32.70
2018-08-09T11:55:44.585Z,32.70
2018-08-09T11:58:19.392Z,32.60
2018-08-09T12:00:54.173Z,32.60
2018-08-09T12:03:28.665Z,32.50
2018-08-09T12:06:03.820Z,32.50
2018-08-09T12:08:38.308Z,32.50
2018-08-09T12:11:13.374Z,32.50
2018-08-09T12:13:47.875Z,32.50
2018-08-09T12:16:22.637Z,32.50
2018-08-09T12:18:56.804Z,32.40
2018-08-09T12:21:31.572Z,32.40
2018-08-09T12:24:06.292Z,32.40
2018-08-09T12:26:41.241Z,32.40
2018-08-09T12:29:15.996Z,32.40
2018-08-09T12:31:50.140Z,32.30
2018-08-09T12:34:24.867Z,32.30
2018-08-09T12:36:59.574Z,32.20
2018-08-09T12:39:34.616Z,32.20
2018-08-09T12:42:09.236Z,32.20
2018-08-09T12:44:44.128Z,32.20
2018-08-09T12:47:19.248Z,32.10
2018-08-09T12:49:53.616Z,32.10
2018-08-09T12:52:28.375Z,32.10
2018-08-09T12:55:03.761Z,32.10
2018-08-09T12:57:38.220Z,32.10
2018-08-09T13:00:13.509Z,32.00
2018-08-09T13:02:48.661Z,32.00
2018-08-09T13:05:23.096Z,32.10
2018-08-09T13:07:57.911Z,32.10
2018-08-09T13:10:32.688Z,32.10
2018-08-09T13:13:07.512Z,32.10
2018-08-09T13:15:42.253Z,32.20
2018-08-09T13:18:17.168Z,32.30
2018-08-09T13:20:51.980Z,32.40
2018-08-09T13:23:26.795Z,32.40
2018-08-09T13:26:01.596Z,32.50
2018-08-09T13:28:36.627Z,32.60
2018-08-09T13:31:11.271Z,32.60
2018-08-09T13:33:46.299Z,32.60
2018-08-09T13:36:20.891Z,32.70
2018-08-09T13:38:55.677Z,32.70
2018-08-09T13:41:30.424Z,32.80
2018-08-09T13:44:04.624Z,32.80
2018-08-09T13:46:39.398Z,32.80
2018-08-09T13:49:14.253Z,32.80
2018-08-09T13:51:48.757Z,32.80
2018-08-09T13:54:23.153Z,32.90
2018-08-09T13:56:57.510Z,32.90
2018-08-09T13:59:32.508Z,33.00
2018-08-09T14:02:06.997Z,33.10
2018-08-09T14:04:42.099Z,33.30
2018-08-09T14:07:16.805Z,33.40
2018-08-09T14:09:51.473Z,33.50
2018-08-09T14:12:26.196Z,33.50
2018-08-09T14:15:00.981Z,33.50
2018-08-09T14:17:36.105Z,33.50
2018-08-09T14:20:14.175Z,33.40
2018-08-09T14:22:48.483Z,33.40
2018-08-09T14:25:22.935Z,33.30
2018-08-09T14:27:57.628Z,33.20
2018-08-09T14:30:32.636Z,33.10
2018-08-09T14:33:07.408Z,33.10
2018-08-09T14:35:42.380Z,33.10
2018-08-09T14:38:17.060Z,33.00
2018-08-09T14:40:52.167Z,32.90
2018-08-09T14:43:26.628Z,32.80
2018-08-09T14:46:01.397Z,32.70
2018-08-09T14:48:36.017Z,32.60
2018-08-09T14:51:11.053Z,32.60
2018-08-09T14:53:45.754Z,32.50
2018-08-09T14:56:20.764Z,32.50
2018-08-09T14:58:55.448Z,32.40
2018-08-09T15:01:30.297Z,32.40
2018-08-09T15:04:05.667Z,32.40
2018-08-09T15:06:40.156Z,32.30
2018-08-09T15:09:14.580Z,32.30
2018-08-09T15:11:49.500Z,32.20
2018-08-09T15:14:24.161Z,32.20
2018-08-09T15:16:58.932Z,32.20
2018-08-09T15:19:33.571Z,32.20
2018-08-09T15:22:08.700Z,32.10
2018-08-09T15:24:43.058Z,32.10
2018-08-09T15:27:17.769Z,32.00
2018-08-09T15:29:52.587Z,32.00
2018-08-09T15:32:27.552Z,32.00
2018-08-09T15:35:02.057Z,32.00
2018-08-09T15:37:36.261Z,32.00
2018-08-09T15:40:12.104Z,32.10
2018-08-09T15:42:47.240Z,32.20
2018-08-09T15:45:21.905Z,32.20
2018-08-09T15:47:56.729Z,32.20
2018-08-09T15:50:31.518Z,32.20
2018-08-09T15:53:06.491Z,32.20
2018-08-09T15:55:41.211Z,32.20
2018-08-09T15:58:16.087Z,32.30
2018-08-09T16:00:50.901Z,32.20
2018-08-09T16:03:25.818Z,32.20
2018-08-09T16:06:00.484Z,32.10
2018-08-09T16:08:35.372Z,32.00
2018-08-09T16:11:10.025Z,31.90
2018-08-09T16:13:44.615Z,31.80
2018-08-09T16:16:19.458Z,31.70
2018-08-09T16:18:54.360Z,31.60
2018-08-09T16:21:29.459Z,31.50
2018-08-09T16:24:04.854Z,31.50
2018-08-09T16:26:39.028Z,31.40
2018-08-09T16:29:13.708Z,31.40
2018-08-09T16:31:48.454Z,31.30
2018-08-09T16:34:23.252Z,31.20
2018-08-09T16:36:58.004Z,31.10
2018-08-09T16:39:32.531Z,31.10
2018-08-09T16:42:07.288Z,31.00
2018-08-09T16:44:41.735Z,31.00
2018-08-09T16:47:16.697Z,31.00
2018-08-09T16:49:51.435Z,30.90
2018-08-09T16:52:26.265Z,30.80
2018-08-09T16:55:01.197Z,30.80
2018-08-09T16:57:36.092Z,30.70
2018-08-09T17:00:14.968Z,30.60
2018-08-09T17:02:50.758Z,30.50
2018-08-09T17:05:27.015Z,30.40
2018-08-09T17:08:02.166Z,30.40
2018-08-09T17:10:36.805Z,30.40
2018-08-09T17:13:11.492Z,30.30
2018-08-09T17:15:46.482Z,30.20
2018-08-09T17:18:21.336Z,30.20
2018-08-09T17:20:56.168Z,30.00
2018-08-09T17:23:30.764Z,29.90
2018-08-09T17:26:06.615Z,29.70
2018-08-09T17:28:41.409Z,29.60
2018-08-09T17:31:16.089Z,29.50
2018-08-09T17:33:50.847Z,29.40
2018-08-09T17:36:25.944Z,29.30
2018-08-09T17:39:00.960Z,29.20
2018-08-09T17:41:35.864Z,29.20
2018-08-09T17:44:11.169Z,29.10
2018-08-09T17:46:46.152Z,29.10
2018-08-09T17:49:20.964Z,28.90
2018-08-09T17:51:55.791Z,28.80
2018-08-09T17:54:30.660Z,28.80
2018-08-09T17:57:05.270Z,28.60
2018-08-09T17:59:40.489Z,28.50
2018-08-09T18:02:14.657Z,28.40
2018-08-09T18:04:49.409Z,28.20
2018-08-09T18:07:24.552Z,28.00
2018-08-09T18:09:59.200Z,27.80
2018-08-09T18:12:34.367Z,27.60
2018-08-09T18:15:09.605Z,27.30
2018-08-09T18:17:44.829Z,27.00
2018-08-09T18:20:21.027Z,26.70
2018-08-09T18:22:56.643Z,26.40
2018-08-09T18:25:31.704Z,26.10
2018-08-09T18:28:07.215Z,25.70
2018-08-09T18:30:42.107Z,25.30
2018-08-09T18:33:16.949Z,25.00
2018-08-09T18:35:51.711Z,24.70
2018-08-09T18:38:26.343Z,24.40
2018-08-09T18:41:00.874Z,24.10
2018-08-09T18:43:35.836Z,23.90
2018-08-09T18:46:10.945Z,23.60
2018-08-09T18:48:45.281Z,23.40
2018-08-09T18:51:19.968Z,23.20
2018-08-09T18:53:54.960Z,23.00
2018-08-09T18:56:29.564Z,22.80
2018-08-09T18:59:04.212Z,22.70
2018-08-09T19:01:39.090Z,22.50
2018-08-09T19:04:13.868Z,22.40
2018-08-09T19:06:51.564Z,22.30
2018-08-09T19:09:26.582Z,22.20
2018-08-09T19:12:02.453Z,22.10
2018-08-09T19:14:37.610Z,22.00
2018-08-09T19:17:12.484Z,21.90
2018-08-09T19:19:47.112Z,21.80
2018-08-09T19:22:21.884Z,21.70
2018-08-09T19:24:56.963Z,21.70
2018-08-09T19:27:31.376Z,21.70
2018-08-09T19:30:06.969Z,21.70
2018-08-09T19:32:42.022Z,21.60
2018-08-09T19:35:18.100Z,21.60
2018-08-09T19:37:52.423Z,21.60
2018-08-09T19:40:28.666Z,21.50
2018-08-09T19:43:03.408Z,21.50
2018-08-09T19:45:39.871Z,21.50
2018-08-09T19:48:15.033Z,21.50
2018-08-09T19:50:50.019Z,21.40
2018-08-09T19:53:24.512Z,21.40
2018-08-09T19:55:59.737Z,21.40
2018-08-09T19:58:34.042Z,21.40
2018-08-09T20:01:08.808Z,21.40
2018-08-09T20:03:43.412Z,21.30
2018-08-09T20:06:18.509Z,21.40
2018-08-09T20:08:53.180Z,21.30
2018-08-09T20:11:28.076Z,21.40
2018-08-09T20:14:02.597Z,21.40
2018-08-09T20:16:40.082Z,21.40
2018-08-09T20:19:14.882Z,21.40
2018-08-09T20:21:49.417Z,21.40
2018-08-09T20:24:24.742Z,21.40
2018-08-09T20:26:59.027Z,21.40
2018-08-09T20:29:33.960Z,21.40
2018-08-09T20:32:08.420Z,21.40
2018-08-09T20:34:43.379Z,21.40
2018-08-09T20:37:17.804Z,21.50
2018-08-09T20:39:51.961Z,21.50
2018-08-09T20:42:27.067Z,21.50
2018-08-09T20:45:02.047Z,21.50
2018-08-09T20:47:36.256Z,21.40
2018-08-09T20:50:15.718Z,21.40
2018-08-09T20:52:50.429Z,21.40
2018-08-09T20:55:25.637Z,21.30
2018-08-09T20:58:01.186Z,21.30
2018-08-09T21:00:36.894Z,21.20
2018-08-09T21:03:11.960Z,21.10
2018-08-09T21:05:47.184Z,21.00
2018-08-09T21:08:23.085Z,21.00
2018-08-09T21:10:59.192Z,20.80
2018-08-09T21:13:34.043Z,20.80
2018-08-09T21:16:08.678Z,20.70
2018-08-09T21:18:43.426Z,20.60
2018-08-09T21:21:18.377Z,20.60
2018-08-09T21:23:53.356Z,20.60
2018-08-09T21:26:27.719Z,20.50
2018-08-09T21:29:02.598Z,20.50
2018-08-09T21:31:37.164Z,20.40
2018-08-09T21:34:12.145Z,20.40
2018-08-09T21:36:46.833Z,20.40
2018-08-09T21:39:22.580Z,20.40
2018-08-09T21:41:57.271Z,20.30
2018-08-09T21:44:32.215Z,20.30
2018-08-09T21:47:06.973Z,20.40
2018-08-09T21:49:41.753Z,20.30
2018-08-09T21:52:16.386Z,20.30
2018-08-09T21:54:51.240Z,20.30
2018-08-09T21:57:26.032Z,20.40
2018-08-09T22:00:00.728Z,20.40
2018-08-09T22:02:35.584Z,20.40
2018-08-09T22:05:16.103Z,20.40
2018-08-09T22:07:57.036Z,20.40
2018-08-09T22:11:36.428Z,20.40
2018-08-09T22:14:16.765Z,20.40
2018-08-09T22:18:00.513Z,20.40
2018-08-09T22:20:40.647Z,20.40
2018-08-09T22:23:15.925Z,20.40
2018-08-09T22:25:50.616Z,20.40
2018-08-09T22:28:25.359Z,20.40
2018-08-09T22:31:00.177Z,20.40
2018-08-09T22:33:35.028Z,20.40
2018-08-09T22:36:09.800Z,20.40
2018-08-09T22:38:44.448Z,20.40
2018-08-09T22:41:18.440Z,20.40
2018-08-09T22:43:53.759Z,20.40
2018-08-09T22:46:28.412Z,20.40
2018-08-09T22:49:03.325Z,20.40
2018-08-09T22:51:38.004Z,20.30
2018-08-09T22:54:12.992Z,20.30
2018-08-09T22:56:47.672Z,20.30
2018-08-09T22:59:22.334Z,20.30
2018-08-09T23:01:57.189Z,20.30
2018-08-09T23:04:32.025Z,20.30
2018-08-09T23:07:06.916Z,20.30
2018-08-09T23:09:41.745Z,20.30
2018-08-09T23:12:16.377Z,20.30
2018-08-09T23:14:51.300Z,20.20
2018-08-09T23:17:25.956Z,20.20
2018-08-09T23:20:00.613Z,20.10
2018-08-09T23:22:35.403Z,20.10
2018-08-09T23:25:12.536Z,20.10
2018-08-09T23:27:47.149Z,20.00
2018-08-09T23:30:21.989Z,20.00
2018-08-09T23:32:56.499Z,20.00
2018-08-09T23:35:32.328Z,20.00
2018-08-09T23:38:06.966Z,19.90
2018-08-09T23:40:41.758Z,20.00
2018-08-09T23:43:16.495Z,19.90
2018-08-09T23:45:51.264Z,19.90
2018-08-09T23:48:25.948Z,19.90
2018-08-09T23:51:00.676Z,19.80
2018-08-09T23:53:35.567Z,19.80
2018-08-09T23:56:10.489Z,19.80
2018-08-09T23:58:45.129Z,19.70
